Time;durP1;ratioP1;P1;durP2;ratioP2;P2;SDS_P1;SDS_P2;PMS_P1;PMS_P2;Temp;Humidity;BMP_temperature;BMP_pressure;BME280_temperature;BME280_humidity;BME280_pressure;Samples;Min_cycle;Max_cycle;Signal;HPM_P1;HPM_P2
2022/05/07 00:01:03;;;;;;;7.50;5.68;;;7.00;99.90;;;;;;5015763;28;20152;-84
2022/05/07 00:03:29;;;;;;;10.63;6.18;;;6.90;99.90;;;;;;5032600;28;20033;-84
2022/05/07 00:05:55;;;;;;;9.05;5.38;;;6.90;99.90;;;;;;5032495;28;20033;-85
2022/05/07 00:08:20;;;;;;;7.65;5.53;;;6.90;99.90;;;;;;5032762;28;20072;-84
2022/05/07 00:10:47;;;;;;;8.98;5.45;;;6.90;99.90;;;;;;5016131;28;20388;-84
2022/05/07 00:13:13;;;;;;;7.15;5.22;;;7.00;99.90;;;;;;5032761;28;20120;-85
2022/05/07 00:15:39;;;;;;;7.82;5.40;;;7.00;99.90;;;;;;5016052;28;20067;-84
2022/05/07 00:18:06;;;;;;;11.38;6.72;;;7.00;99.90;;;;;;5032047;28;20029;-84
2022/05/07 00:20:33;;;;;;;9.13;5.57;;;6.90;99.90;;;;;;5015365;28;20439;-85
2022/05/07 00:22:59;;;;;;;6.68;5.25;;;6.80;99.90;;;;;;5032435;28;20045;-84
2022/05/07 00:25:26;;;;;;;8.30;5.18;;;6.80;99.90;;;;;;5014924;28;20128;-85
2022/05/07 00:27:52;;;;;;;6.97;5.20;;;6.80;99.90;;;;;;5032121;28;20084;-85
2022/05/07 00:30:18;;;;;;;9.32;5.50;;;6.80;99.90;;;;;;5015687;28;20438;-85
2022/05/07 00:32:43;;;;;;;13.60;5.70;;;6.80;99.90;;;;;;5032148;28;20107;-84
2022/05/07 00:35:10;;;;;;;7.72;4.68;;;6.80;99.90;;;;;;5015344;28;20029;-84
2022/05/07 00:37:36;;;;;;;8.50;5.43;;;6.80;99.90;;;;;;5015459;28;20095;-84
2022/05/07 00:40:03;;;;;;;11.30;5.18;;;6.80;99.90;;;;;;5015187;28;20033;-84
2022/05/07 00:42:28;;;;;;;6.93;4.32;;;6.80;99.90;;;;;;5031985;28;20564;-85
2022/05/07 00:44:54;;;;;;;6.32;5.35;;;6.80;99.90;;;;;;5015472;28;20069;-84
2022/05/07 00:47:28;;;;;;;7.25;4.38;;;6.80;99.90;;;;;;5015540;28;20030;-84
2022/05/07 00:52:47;;;;;;;9.15;5.88;;;6.70;99.90;;;;;;5030632;28;20030;-85
2022/05/07 00:55:14;;;;;;;8.52;5.22;;;6.80;99.90;;;;;;5014994;28;20057;-84
2022/05/07 00:57:40;;;;;;;9.30;5.95;;;6.80;99.90;;;;;;5015302;28;20070;-85
2022/05/07 01:00:08;;;;;;;8.85;6.15;;;6.90;99.90;;;;;;5031666;28;20036;-85
2022/05/07 01:02:36;;;;;;;8.25;5.90;;;7.00;99.90;;;;;;5033212;28;20066;-85
2022/05/07 01:05:03;;;;;;;12.07;6.38;;;7.10;99.90;;;;;;5015224;28;20183;-85
2022/05/07 01:07:33;;;;;;;8.25;5.60;;;7.20;99.90;;;;;;5015649;28;20026;-85
2022/05/07 01:10:00;;;;;;;9.70;5.93;;;7.20;99.90;;;;;;5015188;28;20030;-84
2022/05/07 01:12:26;;;;;;;7.28;6.15;;;7.10;99.90;;;;;;5015823;28;20053;-84
2022/05/07 01:14:56;;;;;;;9.57;6.35;;;7.10;99.90;;;;;;5032014;28;20030;-85
2022/05/07 01:17:21;;;;;;;8.73;6.57;;;7.00;99.90;;;;;;5015101;28;20045;-85
2022/05/07 01:19:50;;;;;;;8.63;6.60;;;7.00;99.90;;;;;;5015065;28;20029;-85
2022/05/07 01:22:17;;;;;;;7.93;6.90;;;6.90;99.90;;;;;;5014940;28;20026;-84
2022/05/07 01:24:42;;;;;;;12.13;8.80;;;6.90;99.90;;;;;;5015280;28;20076;-85
2022/05/07 01:27:08;;;;;;;8.35;6.85;;;6.90;99.90;;;;;;5014963;28;20029;-84
2022/05/07 01:30:21;;;;;;;12.38;7.65;;;7.00;99.90;;;;;;5014354;28;20026;-84
2022/05/07 01:32:47;;;;;;;10.77;7.32;;;7.00;99.90;;;;;;5014586;28;20040;-85
2022/05/07 01:35:12;;;;;;;8.60;7.00;;;7.00;99.90;;;;;;5031761;28;20025;-85
2022/05/07 01:37:41;;;;;;;12.77;7.40;;;7.00;99.90;;;;;;5019211;28;20030;-85
2022/05/07 01:40:07;;;;;;;10.52;7.40;;;7.10;99.90;;;;;;5018392;28;20040;-85
2022/05/07 01:42:34;;;;;;;9.20;7.43;;;7.10;99.90;;;;;;5018998;28;20021;-85
2022/05/07 01:45:01;;;;;;;9.02;7.57;;;7.20;99.90;;;;;;5019102;28;20025;-85
2022/05/07 01:50:12;;;;;;;11.73;6.65;;;7.30;99.90;;;;;;5035170;28;20025;-84
2022/05/07 01:52:37;;;;;;;14.10;6.90;;;7.40;99.90;;;;;;5035525;28;20642;-85
2022/05/07 01:55:05;;;;;;;7.68;5.45;;;7.40;99.90;;;;;;5035072;28;20026;-85
2022/05/07 01:57:31;;;;;;;10.02;6.57;;;7.40;99.90;;;;;;5035259;28;20805;-85
2022/05/07 01:59:57;;;;;;;9.60;6.50;;;7.50;99.90;;;;;;5018800;28;20021;-85
2022/05/07 02:02:23;;;;;;;7.95;5.85;;;7.50;99.90;;;;;;5018782;28;20681;-85
2022/05/07 02:04:49;;;;;;;9.30;5.82;;;7.50;99.90;;;;;;5034350;28;20022;-85
2022/05/07 02:07:19;;;;;;;7.78;6.30;;;7.50;99.90;;;;;;5019228;28;20064;-85
2022/05/07 02:09:45;;;;;;;8.90;6.35;;;7.50;99.90;;;;;;5018099;28;20057;-85
2022/05/07 02:12:11;;;;;;;9.82;6.47;;;7.50;99.90;;;;;;5018389;28;20037;-85
2022/05/07 02:14:41;;;;;;;14.38;6.50;;;7.50;99.90;;;;;;5035017;28;20083;-85
2022/05/07 02:17:07;;;;;;;9.35;6.60;;;7.50;99.90;;;;;;5018162;28;20464;-84
2022/05/07 02:19:33;;;;;;;8.00;6.57;;;7.50;99.90;;;;;;5017483;28;20039;-85
2022/05/07 02:21:59;;;;;;;12.55;6.25;;;7.40;99.90;;;;;;5034044;28;20079;-85
2022/05/07 02:24:25;;;;;;;9.68;7.15;;;7.40;99.90;;;;;;5017258;28;20392;-85
2022/05/07 02:26:50;;;;;;;9.23;7.63;;;7.40;99.90;;;;;;5017496;28;20029;-85
2022/05/07 02:29:16;;;;;;;11.43;7.15;;;7.30;99.90;;;;;;5016903;28;20036;-84
2022/05/07 02:32:03;;;;;;;10.68;7.47;;;7.30;99.90;;;;;;5017420;28;20123;-85
2022/05/07 02:34:33;;;;;;;12.82;7.05;;;7.20;99.90;;;;;;5017451;28;20063;-84
2022/05/07 02:37:02;;;;;;;9.80;7.53;;;7.20;99.90;;;;;;5017569;28;20573;-85
2022/05/07 02:39:28;;;;;;;9.80;7.50;;;7.10;99.90;;;;;;5016263;28;20403;-85
2022/05/07 02:44:39;;;;;;;9.70;7.85;;;7.00;99.90;;;;;;5034479;28;20037;-85
2022/05/07 02:47:08;;;;;;;8.70;7.18;;;7.00;99.90;;;;;;5017540;28;20017;-84
2022/05/07 02:49:34;;;;;;;13.43;7.68;;;7.00;99.90;;;;;;5035334;28;20028;-85
2022/05/07 02:52:01;;;;;;;10.35;8.00;;;6.90;99.90;;;;;;5017691;28;20036;-84
2022/05/07 02:54:27;;;;;;;11.55;7.88;;;6.90;99.90;;;;;;5017632;28;20061;-85
2022/05/07 02:56:54;;;;;;;11.00;8.20;;;6.80;99.90;;;;;;5017715;28;20071;-85
2022/05/07 02:59:19;;;;;;;16.75;8.48;;;6.80;99.90;;;;;;5033801;28;20498;-85
2022/05/07 03:01:47;;;;;;;10.38;7.75;;;6.70;99.90;;;;;;5017396;28;20488;-85
2022/05/07 03:04:14;;;;;;;11.77;8.57;;;6.60;99.90;;;;;;5017468;28;20056;-85
2022/05/07 03:06:40;;;;;;;10.82;8.35;;;6.50;99.90;;;;;;5017069;28;20072;-84
2022/05/07 03:09:07;;;;;;;13.35;8.93;;;6.50;99.90;;;;;;5033339;28;20550;-84
2022/05/07 03:11:34;;;;;;;13.30;8.30;;;6.50;99.90;;;;;;5033505;28;20036;-84
2022/05/07 03:14:01;;;;;;;11.15;8.20;;;6.40;99.90;;;;;;5017015;28;20033;-84
2022/05/07 03:16:27;;;;;;;14.35;8.57;;;6.40;99.90;;;;;;5016115;28;20026;-85
2022/05/07 03:18:54;;;;;;;10.02;7.80;;;6.30;99.90;;;;;;5033204;28;20436;-84
2022/05/07 03:21:22;;;;;;;17.25;9.23;;;6.30;99.90;;;;;;5033247;28;20044;-85
2022/05/07 03:23:47;;;;;;;12.82;9.23;;;6.30;99.90;;;;;;5016754;28;20533;-84
2022/05/07 03:26:16;;;;;;;12.05;8.40;;;6.30;99.90;;;;;;5016812;28;20034;-84
2022/05/07 03:28:42;;;;;;;11.90;9.20;;;6.30;99.90;;;;;;5016503;28;20029;-84
2022/05/07 03:31:10;;;;;;;13.45;9.07;;;6.30;99.90;;;;;;5016934;28;20034;-85
2022/05/07 03:33:38;;;;;;;11.18;8.30;;;6.20;99.90;;;;;;5016721;28;20446;-85
2022/05/07 03:36:05;;;;;;;13.07;8.90;;;6.20;99.90;;;;;;5032677;28;20112;-85
2022/05/07 03:38:31;;;;;;;12.30;8.70;;;6.20;99.90;;;;;;5032484;28;20112;-85
2022/05/07 03:41:05;;;;;;;13.48;8.50;;;6.10;99.90;;;;;;5017624;28;20037;-84
2022/05/07 03:43:39;;;;;;;18.48;8.95;;;6.10;99.90;;;;;;5017190;28;20071;-84
2022/05/07 03:46:06;;;;;;;13.18;8.20;;;6.10;99.90;;;;;;5033084;28;20075;-84
2022/05/07 03:48:32;;;;;;;11.82;7.80;;;6.00;99.90;;;;;;5016351;28;20119;-84
2022/05/07 03:50:59;;;;;;;16.83;8.60;;;6.00;99.90;;;;;;5016189;28;20044;-84
2022/05/07 03:53:31;;;;;;;13.70;9.10;;;6.00;99.90;;;;;;5015723;28;20029;-85
2022/05/07 03:56:07;;;;;;;14.02;9.43;;;6.00;99.90;;;;;;5016886;28;20030;-82
2022/05/07 03:58:36;;;;;;;14.85;9.82;;;6.00;99.90;;;;;;5015989;28;20032;-82
2022/05/07 04:01:03;;;;;;;13.75;8.65;;;6.10;99.90;;;;;;5031886;28;20047;-82
2022/05/07 04:03:30;;;;;;;11.15;8.98;;;6.10;99.90;;;;;;5016168;28;20029;-82
2022/05/07 04:05:57;;;;;;;14.30;9.25;;;6.10;99.90;;;;;;5031758;28;20064;-82
2022/05/07 04:08:24;;;;;;;15.77;9.00;;;6.10;99.90;;;;;;5015557;28;20025;-82
2022/05/07 04:10:51;;;;;;;10.25;8.68;;;6.10;99.90;;;;;;5015729;28;20032;-82
2022/05/07 04:13:21;;;;;;;16.27;9.13;;;6.10;99.90;;;;;;5013928;28;20112;-82
2022/05/07 04:15:53;;;;;;;13.68;8.57;;;6.20;99.90;;;;;;5016248;28;20040;-82
2022/05/07 04:18:21;;;;;;;13.90;9.23;;;6.20;99.90;;;;;;5016066;28;20037;-82
2022/05/07 04:20:50;;;;;;;10.85;8.55;;;6.30;99.90;;;;;;5030624;28;20033;-82
2022/05/07 04:23:17;;;;;;;15.88;9.18;;;6.30;99.90;;;;;;5031969;28;20477;-83
2022/05/07 04:25:46;;;;;;;13.25;8.88;;;6.30;99.90;;;;;;5015278;28;20507;-83
2022/05/07 04:28:15;;;;;;;16.63;9.38;;;6.40;99.90;;;;;;5015512;28;20025;-83
2022/05/07 04:30:44;;;;;;;14.95;9.00;;;6.60;99.90;;;;;;5030287;28;20075;-82
2022/05/07 04:33:10;;;;;;;12.80;9.27;;;6.80;99.90;;;;;;5031517;28;20393;-82
2022/05/07 04:35:37;;;;;;;11.68;8.10;;;6.90;99.90;;;;;;5015582;28;20048;-82
2022/05/07 04:38:06;;;;;;;10.18;8.02;;;7.00;99.90;;;;;;5032070;28;20107;-83
2022/05/07 04:40:33;;;;;;;9.90;7.15;;;7.10;99.90;;;;;;5015194;28;20126;-82
2022/05/07 04:42:59;;;;;;;10.52;7.45;;;7.20;99.90;;;;;;5015108;28;20036;-82
2022/05/07 04:45:28;;;;;;;10.60;7.25;;;7.20;99.90;;;;;;5014743;28;20734;-82
2022/05/07 04:48:03;;;;;;;10.73;8.10;;;7.20;99.90;;;;;;5016122;28;20040;-82
2022/05/07 04:50:33;;;;;;;13.02;7.97;;;7.20;99.90;;;;;;5015421;28;20128;-83
2022/05/07 04:53:11;;;;;;;12.75;7.47;;;7.20;99.90;;;;;;5016902;28;20025;-83
2022/05/07 04:55:39;;;;;;;10.43;7.70;;;7.30;99.90;;;;;;5014952;28;20025;-82
2022/05/07 04:58:05;;;;;;;11.43;8.20;;;7.30;99.90;;;;;;5014519;28;20022;-82
2022/05/07 05:00:34;;;;;;;15.50;8.75;;;7.40;99.90;;;;;;5030614;28;20337;-82
2022/05/07 05:03:10;;;;;;;12.45;7.15;;;7.40;99.90;;;;;;5015958;28;20755;-82
2022/05/07 05:05:38;;;;;;;10.02;7.40;;;7.50;99.90;;;;;;5031367;28;20088;-82
2022/05/07 05:08:11;;;;;;;11.73;7.65;;;7.60;99.90;;;;;;5031623;28;20378;-83
2022/05/07 05:10:37;;;;;;;12.88;7.65;;;7.70;99.90;;;;;;5030435;28;20052;-82
2022/05/07 05:13:04;;;;;;;10.18;7.10;;;7.90;99.90;;;;;;5014943;28;20108;-82
2022/05/07 05:15:30;;;;;;;8.63;6.75;;;8.00;99.90;;;;;;5015121;28;20104;-82
2022/05/07 05:18:01;;;;;;;8.82;7.18;;;8.20;99.90;;;;;;5015047;28;20091;-82
2022/05/07 05:20:29;;;;;;;9.55;7.25;;;8.20;99.90;;;;;;5014102;28;20083;-82
2022/05/07 05:23:12;;;;;;;12.35;6.90;;;8.40;99.90;;;;;;5016970;28;20088;-83
2022/05/07 05:25:45;;;;;;;9.10;5.95;;;8.50;99.90;;;;;;5014932;28;20083;-82
2022/05/07 05:28:19;;;;;;;8.20;5.43;;;8.70;99.90;;;;;;5015023;28;20079;-82
2022/05/07 05:30:51;;;;;;;12.85;5.93;;;8.90;99.90;;;;;;5030042;28;20025;-83
2022/05/07 05:33:22;;;;;;;14.73;7.25;;;9.10;99.90;;;;;;5010251;28;20025;-82
2022/05/07 05:36:01;;;;;;;8.00;6.85;;;9.20;99.90;;;;;;5011725;28;20033;-83
2022/05/07 05:38:30;;;;;;;16.33;5.90;;;9.40;99.90;;;;;;5030162;28;20030;-82
2022/05/07 05:40:56;;;;;;;7.55;6.00;;;9.60;99.90;;;;;;5014067;28;20026;-83
2022/05/07 05:43:22;;;;;;;7.97;5.40;;;9.70;99.90;;;;;;5014327;28;20667;-83
2022/05/07 05:45:48;;;;;;;9.50;6.72;;;9.90;99.90;;;;;;5014709;28;20025;-82
2022/05/07 05:48:15;;;;;;;11.13;6.13;;;10.00;99.90;;;;;;5014417;28;20802;-83
2022/05/07 05:50:44;;;;;;;11.98;6.57;;;10.20;99.90;;;;;;5014621;28;20737;-83
2022/05/07 05:53:12;;;;;;;7.80;5.72;;;10.40;99.90;;;;;;5014513;28;20787;-82
2022/05/07 05:55:41;;;;;;;11.35;5.95;;;10.50;99.90;;;;;;5030832;28;20040;-83
2022/05/07 05:58:07;;;;;;;9.68;6.05;;;10.70;99.90;;;;;;5014655;28;20116;-82
2022/05/07 06:00:37;;;;;;;9.85;6.10;;;10.90;99.90;;;;;;5014808;28;20033;-83
2022/05/07 06:03:02;;;;;;;10.15;5.25;;;11.00;99.90;;;;;;5014379;28;20557;-82
2022/05/07 06:05:30;;;;;;;11.90;5.60;;;11.20;99.90;;;;;;5014283;28;20026;-82
2022/05/07 06:07:56;;;;;;;11.02;6.45;;;11.40;99.90;;;;;;5030539;28;20029;-83
2022/05/07 06:10:30;;;;;;;8.77;5.90;;;11.50;99.90;;;;;;5030534;28;20380;-82
2022/05/07 06:12:57;;;;;;;12.15;7.13;;;11.80;99.90;;;;;;5014033;28;20080;-82
2022/05/07 06:15:23;;;;;;;10.70;5.97;;;11.90;99.90;;;;;;5029633;28;20116;-82
2022/05/07 06:17:49;;;;;;;8.18;4.93;;;12.10;99.90;;;;;;5030761;28;20101;-83
2022/05/07 06:20:15;;;;;;;10.82;6.10;;;12.30;99.90;;;;;;5014158;28;20026;-80
2022/05/07 06:22:47;;;;;;;10.48;5.78;;;12.40;99.90;;;;;;5031797;28;20540;-81
2022/05/07 06:28:01;;;;;;;7.90;5.10;;;12.70;99.90;;;;;;5033951;28;20035;-80
2022/05/07 06:30:32;;;;;;;8.00;4.68;;;12.80;99.90;;;;;;5016675;28;20389;-81
2022/05/07 06:32:59;;;;;;;8.30;4.45;;;12.90;99.90;;;;;;5015734;28;20524;-81
2022/05/07 06:35:32;;;;;;;11.27;4.80;;;12.90;99.90;;;;;;5018700;28;20060;-83
2022/05/07 06:38:04;;;;;;;7.00;4.30;;;13.10;99.90;;;;;;5017600;28;20056;-82
2022/05/07 06:40:30;;;;;;;14.88;4.07;;;13.20;99.90;;;;;;5016521;28;20022;-82
2022/05/07 06:42:55;;;;;;;11.40;4.40;;;13.30;99.90;;;;;;5029319;28;20049;-81
2022/05/07 06:45:40;;;;;;;6.47;4.18;;;13.40;99.90;;;;;;5019453;28;20030;-81
2022/05/07 06:48:11;;;;;;;6.70;4.45;;;13.50;99.90;;;;;;5033342;28;20053;-81
2022/05/07 06:50:38;;;;;;;8.60;4.10;;;13.60;99.90;;;;;;5016450;28;20417;-82
2022/05/07 06:53:04;;;;;;;9.05;6.20;;;13.70;99.90;;;;;;5017204;28;20033;-81
2022/05/07 06:55:32;;;;;;;9.25;4.05;;;13.80;99.90;;;;;;5017208;28;20481;-81
2022/05/07 06:57:58;;;;;;;7.68;5.03;;;13.90;99.90;;;;;;5033567;28;20030;-81
2022/05/07 07:00:25;;;;;;;7.45;4.57;;;14.00;99.90;;;;;;5017018;28;20489;-81
2022/05/07 07:02:50;;;;;;;6.75;3.88;;;14.10;99.90;;;;;;5033172;28;20044;-81
2022/05/07 07:05:16;;;;;;;4.53;3.65;;;14.20;99.90;;;;;;5033108;28;20030;-80
2022/05/07 07:07:43;;;;;;;6.63;3.90;;;14.30;99.90;;;;;;5032976;28;20481;-80
2022/05/07 07:10:09;;;;;;;9.63;4.15;;;14.40;99.90;;;;;;5032905;28;20112;-81
2022/05/07 07:16:22;;;;;;;4.05;3.20;;;14.60;99.90;;;;;;5034483;28;20183;-81
2022/05/07 07:18:48;;;;;;;13.40;3.92;;;14.70;99.90;;;;;;5015870;28;20090;-80
2022/05/07 07:21:14;;;;;;;6.15;3.17;;;14.70;99.90;;;;;;5032695;28;20038;-81
2022/05/07 07:23:39;;;;;;;7.93;3.45;;;14.70;99.90;;;;;;5033030;28;20485;-80
2022/05/07 07:26:05;;;;;;;7.28;3.50;;;14.80;99.90;;;;;;5032501;28;20029;-80
2022/05/07 07:28:31;;;;;;;4.28;2.67;;;14.90;99.90;;;;;;5016373;28;20045;-80
2022/05/07 07:30:58;;;;;;;7.72;3.28;;;15.00;99.90;;;;;;5015761;28;20485;-83
2022/05/07 07:33:24;;;;;;;5.57;3.40;;;15.20;99.90;;;;;;5032553;28;20040;-81
2022/05/07 07:35:49;;;;;;;5.00;3.20;;;15.20;99.90;;;;;;5016169;28;20397;-80
2022/05/07 07:38:15;;;;;;;4.10;2.63;;;15.30;99.90;;;;;;5032272;28;20041;-81
2022/05/07 07:40:41;;;;;;;6.32;3.13;;;15.40;99.90;;;;;;5031582;28;20033;-80
2022/05/07 07:43:06;;;;;;;6.18;2.83;;;15.40;99.90;;;;;;5016026;28;20034;-80
2022/05/07 07:48:17;;;;;;;7.03;2.80;;;15.30;99.90;;;;;;5033175;28;20040;-81
2022/05/07 07:50:45;;;;;;;11.70;3.65;;;15.40;99.90;;;;;;5031592;28;20034;-81
2022/05/07 07:53:12;;;;;;;9.57;2.85;;;15.50;99.90;;;;;;5012416;28;20039;-80
2022/05/07 07:55:38;;;;;;;8.45;2.58;;;15.60;99.90;;;;;;5031369;28;20508;-80
2022/05/07 07:58:09;;;;;;;6.20;2.50;;;15.80;99.90;;;;;;5015392;28;20026;-80
2022/05/07 08:00:36;;;;;;;11.85;2.60;;;15.80;99.90;;;;;;5031249;28;20416;-80
2022/05/07 08:03:09;;;;;;;9.73;2.85;;;15.90;99.90;;;;;;5031016;28;20022;-80
2022/05/07 08:05:36;;;;;;;6.65;2.10;;;16.00;99.90;;;;;;5032626;28;20041;-82
2022/05/07 08:13:40;;;;;;;7.63;2.53;;;16.20;99.90;;;;;;5031497;28;20038;-80
2022/05/07 08:16:10;;;;;;;47.53;14.30;;;16.90;99.90;;;;;;5031513;28;20033;-81
2022/05/07 08:18:36;;;;;;;33.80;10.30;;;18.20;99.90;;;;;;5032840;28;20033;-80
2022/05/07 08:21:03;;;;;;;36.67;8.88;;;19.80;97.30;;;;;;5031383;28;20029;-80
2022/05/07 08:23:28;;;;;;;20.20;5.30;;;21.10;91.30;;;;;;5031780;28;20037;-81
2022/05/07 08:25:55;;;;;;;18.30;5.50;;;21.90;84.50;;;;;;5031487;28;20033;-80
2022/05/07 08:28:21;;;;;;;6.18;2.58;;;22.20;80.00;;;;;;5015110;28;20030;-81
2022/05/07 08:30:49;;;;;;;14.90;4.40;;;22.80;72.90;;;;;;5031135;28;20033;-81
2022/05/07 08:33:19;;;;;;;8.77;2.42;;;23.40;68.00;;;;;;5015144;28;20033;-81
2022/05/07 08:35:44;;;;;;;8.48;2.58;;;23.40;67.10;;;;;;5032896;28;20033;-81
2022/05/07 08:41:36;;;;;;;4.80;2.28;;;23.60;62.90;;;;;;5032487;28;20113;-81
2022/05/07 08:44:02;;;;;;;6.40;2.08;;;23.70;63.60;;;;;;5031632;28;20563;-81
2022/05/07 08:46:28;;;;;;;7.05;2.20;;;23.90;62.80;;;;;;5031259;28;20040;-81
2022/05/07 08:48:54;;;;;;;15.73;2.53;;;24.40;58.40;;;;;;5015204;28;20025;-80
2022/05/07 08:51:21;;;;;;;5.05;1.92;;;24.70;57.70;;;;;;5031264;28;20033;-81
2022/05/07 08:53:49;;;;;;;7.82;2.20;;;24.60;56.30;;;;;;5014891;28;20029;-83
2022/05/07 08:56:17;;;;;;;5.32;2.33;;;23.70;57.10;;;;;;5032653;28;20040;-82
2022/05/07 08:58:47;;;;;;;5.93;2.53;;;23.80;61.40;;;;;;5014879;28;20033;-82
2022/05/07 09:01:12;;;;;;;5.50;2.17;;;22.40;61.70;;;;;;5031102;28;20136;-81
2022/05/07 09:03:40;;;;;;;4.78;2.10;;;21.10;65.70;;;;;;5010209;28;20141;-81
2022/05/07 09:06:19;;;;;;;8.52;2.38;;;21.40;65.80;;;;;;5030006;28;20026;-81
2022/05/07 09:08:46;;;;;;;3.28;2.05;;;22.60;63.40;;;;;;5014305;28;20122;-81
2022/05/07 09:11:12;;;;;;;6.63;2.20;;;23.60;62.60;;;;;;5013755;28;20047;-81
2022/05/07 09:13:38;;;;;;;3.05;2.35;;;22.60;59.20;;;;;;5032549;28;20025;-81
2022/05/07 09:16:08;;;;;;;5.03;2.85;;;21.50;61.50;;;;;;5030632;28;20358;-82
2022/05/07 09:18:34;;;;;;;3.92;2.25;;;20.20;67.20;;;;;;5030975;28;20037;-81
2022/05/07 09:21:16;;;;;;;4.60;2.35;;;19.30;69.70;;;;;;5030927;28;20440;-81
2022/05/07 09:24:00;;;;;;;8.63;3.08;;;19.10;72.20;;;;;;5014399;28;20029;-81
2022/05/07 09:26:28;;;;;;;7.20;2.65;;;19.40;71.20;;;;;;5031119;28;20496;-81
2022/05/07 09:28:54;;;;;;;10.32;2.67;;;20.50;71.30;;;;;;5031080;28;20052;-81
2022/05/07 09:31:27;;;;;;;6.80;2.58;;;22.00;67.70;;;;;;5030755;28;20401;-81
2022/05/07 09:33:54;;;;;;;4.35;2.25;;;23.30;64.40;;;;;;5013873;28;20030;-82
2022/05/07 09:36:23;;;;;;;4.63;2.47;;;23.90;60.60;;;;;;5030831;28;20120;-81
2022/05/07 09:39:03;;;;;;;4.55;2.30;;;23.20;61.70;;;;;;5014578;28;20051;-81
2022/05/07 09:41:29;;;;;;;4.00;2.30;;;21.70;62.50;;;;;;5014422;28;20038;-81
2022/05/07 09:43:55;;;;;;;3.97;2.53;;;21.10;67.30;;;;;;5030766;28;20096;-81
2022/05/07 09:46:22;;;;;;;5.40;2.30;;;21.50;67.20;;;;;;5031762;28;20026;-81
2022/05/07 09:48:48;;;;;;;5.60;2.70;;;22.30;66.50;;;;;;5031768;28;20057;-81
2022/05/07 09:51:15;;;;;;;2.90;2.10;;;22.30;63.10;;;;;;5013354;28;20132;-81
2022/05/07 09:59:12;;;;;;;4.45;2.53;;;20.60;69.00;;;;;;5034150;28;20041;-81
2022/05/07 10:01:51;;;;;;;3.67;2.17;;;20.10;71.60;;;;;;5034054;28;20396;-81
2022/05/07 10:04:40;;;;;;;7.50;2.78;;;19.50;72.10;;;;;;5010591;28;20106;-80
2022/05/07 10:07:12;;;;;;;4.85;2.10;;;19.10;72.00;;;;;;5017812;28;20059;-81
2022/05/07 10:10:02;;;;;;;2.72;2.20;;;19.20;75.10;;;;;;5033882;28;20654;-81
2022/05/07 10:12:29;;;;;;;6.13;3.00;;;19.70;71.40;;;;;;5033260;28;20632;-80
2022/05/07 10:15:08;;;;;;;4.78;2.47;;;19.80;70.10;;;;;;5017192;28;20040;-80
2022/05/07 10:17:34;;;;;;;6.45;2.40;;;19.70;68.90;;;;;;5033557;28;20037;-81
2022/05/07 10:20:09;;;;;;;5.90;2.72;;;19.50;68.90;;;;;;5017444;28;20025;-81
2022/05/07 10:22:36;;;;;;;3.72;1.92;;;20.40;69.20;;;;;;5034248;28;20103;-81
2022/05/07 10:25:02;;;;;;;3.90;2.83;;;21.10;69.10;;;;;;5017481;28;20033;-81
2022/05/07 10:27:35;;;;;;;4.10;2.17;;;21.00;69.30;;;;;;5029875;28;20116;-81
2022/05/07 10:30:21;;;;;;;5.28;2.17;;;21.00;69.60;;;;;;5017089;28;20026;-81
2022/05/07 10:32:57;;;;;;;5.97;2.42;;;20.60;68.80;;;;;;5018011;28;20121;-81
2022/05/07 10:35:52;;;;;;;5.57;2.25;;;20.70;68.70;;;;;;5034298;28;20029;-81
2022/05/07 10:38:32;;;;;;;5.75;2.00;;;21.20;67.40;;;;;;5033980;28;20128;-81
2022/05/07 10:41:26;;;;;;;3.53;2.17;;;20.90;65.40;;;;;;5017071;28;20037;-81
2022/05/07 10:43:54;;;;;;;5.47;2.38;;;20.40;67.70;;;;;;5016283;28;20272;-81
2022/05/07 10:46:22;;;;;;;17.08;2.70;;;19.80;68.90;;;;;;5034479;28;20032;-81
2022/05/07 10:48:53;;;;;;;6.90;2.03;;;19.20;68.40;;;;;;5016791;28;20128;-81
2022/05/07 10:51:29;;;;;;;6.72;2.10;;;19.10;69.50;;;;;;5033149;28;20033;-81
2022/05/07 10:54:00;;;;;;;7.22;2.58;;;19.60;72.90;;;;;;5033376;28;20431;-81
2022/05/07 10:56:30;;;;;;;5.53;1.95;;;20.90;68.00;;;;;;5017610;28;20025;-81
2022/05/07 10:58:57;;;;;;;3.85;2.38;;;21.80;67.00;;;;;;5031320;28;20026;-81
2022/05/07 11:01:24;;;;;;;5.60;2.50;;;22.30;66.90;;;;;;5032013;28;20541;-81
2022/05/07 11:04:00;;;;;;;4.13;2.47;;;22.60;63.60;;;;;;5016338;28;20053;-81
2022/05/07 11:06:26;;;;;;;3.35;2.13;;;22.80;63.50;;;;;;5033151;28;20033;-81
2022/05/07 11:08:53;;;;;;;6.05;2.15;;;22.90;60.80;;;;;;5032306;28;20033;-81
2022/05/07 11:11:19;;;;;;;3.17;2.17;;;23.00;63.40;;;;;;5029497;28;20094;-80
2022/05/07 11:13:57;;;;;;;2.63;1.85;;;23.20;62.70;;;;;;5032902;28;20047;-81
2022/05/07 11:16:23;;;;;;;5.32;2.45;;;23.60;62.60;;;;;;5016062;28;20029;-82
2022/05/07 11:18:51;;;;;;;5.80;2.13;;;23.50;61.40;;;;;;5015838;28;20037;-81
2022/05/07 11:21:22;;;;;;;6.40;2.22;;;22.80;63.00;;;;;;5032135;28;20060;-81
2022/05/07 11:23:56;;;;;;;4.63;2.00;;;23.10;61.30;;;;;;5032913;28;20083;-81
2022/05/07 11:26:22;;;;;;;4.65;2.45;;;22.60;60.70;;;;;;5032776;28;20036;-81
2022/05/07 11:28:49;;;;;;;5.30;1.95;;;23.20;61.30;;;;;;5033899;28;20057;-81
2022/05/07 11:31:25;;;;;;;4.38;2.20;;;22.90;58.80;;;;;;5015438;28;20392;-81
2022/05/07 11:34:07;;;;;;;10.50;2.38;;;22.80;61.00;;;;;;5016597;28;20503;-81
2022/05/07 11:36:35;;;;;;;3.38;2.15;;;23.80;62.10;;;;;;5032774;28;20080;-81
2022/05/07 11:39:05;;;;;;;6.55;2.25;;;24.00;58.50;;;;;;5016209;28;20088;-82
2022/05/07 11:41:33;;;;;;;5.25;2.38;;;23.60;59.80;;;;;;5015826;28;20038;-81
2022/05/07 11:46:56;;;;;;;2.60;2.17;;;24.20;58.80;;;;;;5032266;28;20048;-82
2022/05/07 11:49:33;;;;;;;4.95;1.98;;;24.90;58.50;;;;;;5032674;28;20704;-81
2022/05/07 11:52:10;;;;;;;6.53;2.22;;;25.10;57.40;;;;;;5032702;28;20080;-82
2022/05/07 11:54:36;;;;;;;10.15;2.60;;;24.70;59.50;;;;;;5028527;28;20633;-82
2022/05/07 11:57:03;;;;;;;4.47;2.08;;;25.00;58.50;;;;;;5032220;28;20068;-82
2022/05/07 11:59:29;;;;;;;3.58;2.33;;;24.70;59.20;;;;;;5033421;28;20025;-81
2022/05/07 12:01:55;;;;;;;5.32;2.15;;;24.50;58.50;;;;;;5031828;28;20558;-81
2022/05/07 12:04:30;;;;;;;9.52;3.10;;;23.70;59.70;;;;;;5016061;28;20079;-81
2022/05/07 12:06:56;;;;;;;7.88;2.50;;;23.00;59.90;;;;;;5015700;28;20499;-81
2022/05/07 12:09:22;;;;;;;6.78;2.60;;;22.80;61.00;;;;;;5032398;28;20029;-81
2022/05/07 12:11:49;;;;;;;7.43;2.30;;;22.50;64.20;;;;;;5032137;28;20033;-81
2022/05/07 12:14:15;;;;;;;2.60;1.88;;;22.90;62.50;;;;;;5011281;28;20389;-81
2022/05/07 12:19:29;;;;;;;9.27;2.35;;;22.70;63.10;;;;;;5031863;28;20452;-81
2022/05/07 12:30:12;;;;;;;6.55;2.28;;;22.20;62.80;;;;;;5031144;28;20033;-80
2022/05/07 12:32:40;;;;;;;6.65;2.33;;;22.20;61.70;;;;;;5030843;28;20094;-81
2022/05/07 12:35:06;;;;;;;6.60;2.20;;;22.80;61.70;;;;;;5031316;28;20033;-81
2022/05/07 12:37:33;;;;;;;5.47;1.90;;;23.30;59.30;;;;;;5032503;28;20045;-81
2022/05/07 12:39:59;;;;;;;6.55;2.08;;;23.50;57.40;;;;;;5015037;28;20444;-81
2022/05/07 12:42:25;;;;;;;6.28;2.20;;;23.10;59.30;;;;;;5031506;28;20034;-81
2022/05/07 12:44:51;;;;;;;4.15;1.90;;;23.00;60.00;;;;;;5031456;28;20060;-81
2022/05/07 12:47:19;;;;;;;5.72;2.50;;;22.80;58.90;;;;;;5032562;28;20040;-81
2022/05/07 12:49:45;;;;;;;7.78;1.95;;;22.80;59.30;;;;;;5030802;28;20025;-80
2022/05/07 12:52:11;;;;;;;4.32;1.90;;;22.20;59.50;;;;;;5031150;28;20440;-81
2022/05/07 12:54:37;;;;;;;6.70;2.15;;;21.60;62.70;;;;;;5014686;28;20033;-81
2022/05/07 13:00:51;;;;;;;4.53;2.30;;;21.00;64.80;;;;;;5032378;28;20031;-80
2022/05/07 13:03:17;;;;;;;7.25;2.10;;;20.90;62.70;;;;;;5030899;28;20033;-80
2022/05/07 13:05:42;;;;;;;4.22;2.55;;;20.60;63.60;;;;;;5030944;28;20033;-80
2022/05/07 13:08:08;;;;;;;2.83;2.13;;;20.20;63.70;;;;;;5031118;28;20083;-81
2022/05/07 13:10:34;;;;;;;3.53;2.00;;;20.30;66.20;;;;;;5014314;28;20067;-81
2022/05/07 13:13:02;;;;;;;4.15;2.03;;;21.40;65.40;;;;;;5014789;28;20489;-81
2022/05/07 13:15:28;;;;;;;4.63;1.88;;;22.70;62.80;;;;;;5014676;28;20044;-81
2022/05/07 13:17:59;;;;;;;4.75;2.15;;;24.10;57.20;;;;;;5014284;28;20029;-82
2022/05/07 13:20:26;;;;;;;9.15;1.83;;;25.20;57.20;;;;;;5014483;28;20030;-81
2022/05/07 13:22:52;;;;;;;5.25;2.08;;;24.90;57.70;;;;;;5013982;28;20566;-81
2022/05/07 13:25:22;;;;;;;9.80;2.38;;;24.00;57.70;;;;;;5031197;28;20600;-81
2022/05/07 13:27:50;;;;;;;4.05;2.10;;;22.80;58.70;;;;;;5015141;28;20033;-80
2022/05/07 13:30:17;;;;;;;4.85;2.10;;;22.00;60.20;;;;;;5014257;28;20025;-81
2022/05/07 13:32:46;;;;;;;4.38;2.00;;;21.60;62.20;;;;;;5034753;28;20034;-80
2022/05/07 13:35:12;;;;;;;2.83;1.58;;;21.40;62.90;;;;;;5034908;28;20038;-81
2022/05/07 13:37:38;;;;;;;6.80;1.90;;;22.40;62.10;;;;;;5035061;28;20717;-80
2022/05/07 13:40:05;;;;;;;4.80;1.92;;;23.80;63.50;;;;;;5018319;28;20043;-81
2022/05/07 13:42:30;;;;;;;4.05;2.00;;;25.20;59.10;;;;;;5034679;28;20033;-81
2022/05/07 13:44:56;;;;;;;9.40;3.20;;;26.60;55.80;;;;;;5034590;28;20805;-81